Time;durP1;ratioP1;P1;durP2;ratioP2;P2;SDS_P1;SDS_P2;PMS_P1;PMS_P2;Temp;Humidity;BMP_temperature;BMP_pressure;BME280_temperature;BME280_humidity;BME280_pressure;Samples;Min_cycle;Max_cycle;Signal;HPM_P1;HPM_P2
2023/06/17 00:01:08;;;;;;;4.07;3.78;;;23.30;46.10;;;;;;4984006;28;20129;-87
2023/06/17 00:03:34;;;;;;;3.50;3.20;;;23.20;46.00;;;;;;4984764;28;20034;-85
2023/06/17 00:06:03;;;;;;;3.90;3.60;;;23.10;45.90;;;;;;4987597;28;20047;-86
2023/06/17 00:08:29;;;;;;;6.28;3.90;;;23.20;46.10;;;;;;4984375;28;20448;-85
2023/06/17 00:10:56;;;;;;;4.63;3.35;;;23.10;46.00;;;;;;4983508;28;20649;-88
2023/06/17 00:13:22;;;;;;;4.03;3.67;;;23.10;46.00;;;;;;4986239;28;20042;-86
2023/06/17 00:15:56;;;;;;;3.92;3.63;;;23.00;45.90;;;;;;4984510;28;20038;-85
2023/06/17 00:18:25;;;;;;;3.75;3.45;;;23.00;46.00;;;;;;4982068;28;20034;-88
2023/06/17 00:20:52;;;;;;;4.32;3.90;;;23.00;46.00;;;;;;4983687;28;20042;-84
2023/06/17 00:23:20;;;;;;;3.85;3.55;;;22.90;45.90;;;;;;4982352;28;20449;-85
2023/06/17 00:25:49;;;;;;;4.80;3.85;;;22.90;46.00;;;;;;4982936;28;20042;-85
2023/06/17 00:28:16;;;;;;;4.10;3.53;;;22.90;46.00;;;;;;4981689;28;20474;-87
2023/06/17 00:30:47;;;;;;;3.85;3.55;;;22.90;46.00;;;;;;4982092;28;20037;-85
2023/06/17 00:33:15;;;;;;;3.67;3.38;;;22.80;46.00;;;;;;4982258;28;20770;-86
2023/06/17 00:35:40;;;;;;;3.60;3.30;;;22.80;46.00;;;;;;4983397;28;20517;-85
2023/06/17 00:38:06;;;;;;;6.50;3.53;;;22.80;46.00;;;;;;4984342;28;20065;-86
2023/06/17 00:40:33;;;;;;;3.20;3.00;;;22.80;46.10;;;;;;4987820;28;20045;-85
2023/06/17 00:42:59;;;;;;;3.42;3.13;;;22.70;46.00;;;;;;4983621;28;20034;-85
2023/06/17 00:45:38;;;;;;;3.60;3.40;;;22.70;46.00;;;;;;4982331;28;20125;-87
2023/06/17 00:48:08;;;;;;;3.90;3.60;;;22.70;46.10;;;;;;4979975;28;20208;-86
2023/06/17 00:50:36;;;;;;;3.90;3.35;;;22.70;46.10;;;;;;4986182;28;20037;-87
2023/06/17 00:53:08;;;;;;;4.10;3.72;;;22.70;46.20;;;;;;4987758;28;20034;-86
2023/06/17 00:55:39;;;;;;;3.90;3.50;;;22.60;46.00;;;;;;4970748;28;20053;-87
2023/06/17 00:58:07;;;;;;;3.60;3.30;;;22.60;46.00;;;;;;4998261;28;20516;-85
2023/06/17 01:00:33;;;;;;;3.47;3.17;;;22.60;46.10;;;;;;4982673;28;20041;-87
2023/06/17 01:03:02;;;;;;;2.78;2.58;;;22.50;46.00;;;;;;4992691;28;20034;-87
2023/06/17 01:05:29;;;;;;;3.70;3.40;;;22.50;46.10;;;;;;4977418;28;20047;-87
2023/06/17 01:08:29;;;;;;;4.28;3.42;;;22.50;46.10;;;;;;4999958;28;20068;-86
2023/06/17 01:11:04;;;;;;;3.20;3.00;;;22.50;46.20;;;;;;4984362;28;20037;-85
2023/06/17 01:13:35;;;;;;;3.28;2.97;;;22.40;46.10;;;;;;4984532;28;20552;-85
2023/06/17 01:16:02;;;;;;;4.10;3.78;;;22.40;46.10;;;;;;4980346;28;20152;-86
2023/06/17 01:18:29;;;;;;;3.00;2.80;;;22.40;46.20;;;;;;4975354;28;20065;-86
2023/06/17 01:21:04;;;;;;;3.10;2.85;;;22.40;46.30;;;;;;4982085;28;20023;-86
2023/06/17 01:23:37;;;;;;;3.20;3.00;;;22.40;46.30;;;;;;4995541;28;20053;-85
2023/06/17 01:26:09;;;;;;;3.28;2.97;;;22.40;46.30;;;;;;4981171;28;20101;-84
2023/06/17 01:28:44;;;;;;;2.97;2.78;;;22.30;46.20;;;;;;4998568;28;20133;-86
2023/06/17 01:31:16;;;;;;;5.35;3.85;;;22.40;46.40;;;;;;4979555;28;20043;-85
2023/06/17 01:33:46;;;;;;;3.50;3.17;;;22.30;46.30;;;;;;4998626;28;20061;-86
2023/06/17 01:36:25;;;;;;;5.03;3.08;;;22.30;46.30;;;;;;4998903;28;20035;-88
2023/06/17 01:39:01;;;;;;;2.95;2.75;;;22.30;46.40;;;;;;4987213;28;20048;-88
2023/06/17 01:41:35;;;;;;;3.40;3.00;;;22.30;46.40;;;;;;4982695;28;20069;-87
2023/06/17 01:44:05;;;;;;;3.47;3.17;;;22.20;46.30;;;;;;4967466;28;20113;-87
2023/06/17 01:46:32;;;;;;;3.13;2.83;;;22.20;46.30;;;;;;4968252;28;20053;-87
2023/06/17 01:49:01;;;;;;;3.28;3.08;;;22.20;46.30;;;;;;4986034;28;20038;-86
2023/06/17 01:51:27;;;;;;;3.22;2.83;;;22.20;46.40;;;;;;4985014;28;20038;-87
2023/06/17 01:53:59;;;;;;;2.92;2.72;;;22.10;46.20;;;;;;4983933;28;20501;-84
2023/06/17 01:56:27;;;;;;;2.92;2.72;;;22.20;46.40;;;;;;4977406;28;20042;-84
2023/06/17 01:58:59;;;;;;;3.65;3.35;;;22.20;46.50;;;;;;4983370;28;20440;-85
2023/06/17 02:01:26;;;;;;;4.25;3.22;;;22.10;46.30;;;;;;4983452;28;20352;-84
2023/06/17 02:03:56;;;;;;;4.43;3.13;;;22.10;46.40;;;;;;4977054;28;20035;-88
2023/06/17 02:06:22;;;;;;;3.42;3.13;;;22.10;46.40;;;;;;4989545;28;20050;-88
2023/06/17 02:08:49;;;;;;;4.43;2.90;;;22.10;46.50;;;;;;4986009;28;20125;-90
2023/06/17 02:11:15;;;;;;;4.03;2.72;;;22.00;46.30;;;;;;4987090;28;20257;-88
2023/06/17 02:13:41;;;;;;;3.10;2.90;;;22.00;46.40;;;;;;4984839;28;20049;-86
2023/06/17 02:16:07;;;;;;;3.58;3.28;;;22.10;46.50;;;;;;4985450;28;20121;-85
2023/06/17 02:18:33;;;;;;;3.00;2.70;;;22.00;46.40;;;;;;4983119;28;20027;-85
2023/06/17 02:21:01;;;;;;;3.10;2.80;;;22.00;46.40;;;;;;4986336;28;20053;-86
2023/06/17 02:23:29;;;;;;;3.50;2.97;;;21.90;46.90;;;;;;4985106;28;20035;-85
2023/06/17 02:25:56;;;;;;;3.47;3.17;;;21.90;46.30;;;;;;4987410;28;20506;-87
2023/06/17 02:28:25;;;;;;;3.20;3.00;;;21.90;46.40;;;;;;4987882;28;20026;-88
2023/06/17 02:30:52;;;;;;;3.38;3.08;;;21.90;46.40;;;;;;4990827;28;20141;-88
2023/06/17 02:33:19;;;;;;;3.58;3.28;;;21.90;46.50;;;;;;5001128;28;20022;-89
2023/06/17 02:35:46;;;;;;;3.30;3.00;;;21.80;46.40;;;;;;4994781;28;20063;-86
2023/06/17 02:38:13;;;;;;;3.80;3.50;;;21.80;46.50;;;;;;4986018;28;20096;-86
2023/06/17 02:40:39;;;;;;;3.30;3.00;;;21.80;46.50;;;;;;4986295;28;20030;-87
2023/06/17 02:43:08;;;;;;;3.53;3.22;;;21.80;46.60;;;;;;4985879;28;20166;-86
2023/06/17 02:45:36;;;;;;;3.95;2.90;;;21.70;46.60;;;;;;4987486;28;20048;-88
2023/06/17 02:48:02;;;;;;;4.00;3.53;;;21.70;46.60;;;;;;4988194;28;20434;-87
2023/06/17 02:50:28;;;;;;;3.97;3.58;;;21.70;46.70;;;;;;4986294;28;20041;-89
2023/06/17 02:52:57;;;;;;;4.00;3.60;;;21.70;46.80;;;;;;4986065;28;20031;-89
2023/06/17 02:55:27;;;;;;;3.55;3.25;;;21.60;46.60;;;;;;4997259;28;20511;-89
2023/06/17 02:57:54;;;;;;;3.75;2.67;;;21.60;46.70;;;;;;4986180;28;20027;-89
2023/06/17 03:00:25;;;;;;;3.90;3.35;;;21.60;46.80;;;;;;4978919;28;20090;-86
2023/06/17 03:02:52;;;;;;;3.38;2.92;;;21.60;46.90;;;;;;4984104;28;20061;-86
2023/06/17 03:05:18;;;;;;;4.53;3.50;;;21.50;46.70;;;;;;4989254;28;20093;-89
2023/06/17 03:07:45;;;;;;;3.83;3.20;;;21.50;46.80;;;;;;4988293;28;20034;-89
2023/06/17 03:10:12;;;;;;;3.33;3.03;;;21.50;46.80;;;;;;4994495;28;20473;-86
2023/06/17 03:12:45;;;;;;;3.45;3.15;;;21.40;46.70;;;;;;4985328;28;20035;-88
2023/06/17 03:15:13;;;;;;;4.75;3.45;;;21.40;46.70;;;;;;4986061;28;20042;-90
2023/06/17 03:17:42;;;;;;;5.03;3.53;;;21.40;46.70;;;;;;4986529;28;20030;-89
2023/06/17 03:20:09;;;;;;;3.10;2.90;;;21.40;46.80;;;;;;4992050;28;20070;-87
2023/06/17 03:23:00;;;;;;;3.95;3.65;;;21.30;46.60;;;;;;4945755;28;20657;-87
2023/06/17 03:25:26;;;;;;;3.13;2.92;;;21.30;46.60;;;;;;4982148;28;20046;-88
2023/06/17 03:27:56;;;;;;;3.50;3.20;;;21.30;46.70;;;;;;4989761;28;20046;-87
2023/06/17 03:30:25;;;;;;;3.75;2.90;;;21.20;46.50;;;;;;4999905;28;20039;-86
2023/06/17 03:32:52;;;;;;;3.17;2.88;;;21.20;46.60;;;;;;4991807;28;20105;-86
2023/06/17 03:35:18;;;;;;;3.10;2.78;;;21.20;46.60;;;;;;4991383;28;20046;-87
2023/06/17 03:37:45;;;;;;;2.92;2.53;;;21.20;46.60;;;;;;4990248;28;20034;-87
2023/06/17 03:40:13;;;;;;;3.25;2.95;;;21.20;46.70;;;;;;4983954;28;20482;-87
2023/06/17 03:42:40;;;;;;;2.90;2.70;;;21.10;46.50;;;;;;4976616;28;20038;-88
2023/06/17 03:45:10;;;;;;;3.30;2.97;;;21.10;46.50;;;;;;4989239;28;20058;-86
2023/06/17 03:47:36;;;;;;;2.60;2.40;;;21.10;46.60;;;;;;4992142;28;20124;-86
2023/06/17 03:50:05;;;;;;;3.30;3.05;;;21.10;46.60;;;;;;4987114;28;20042;-88
2023/06/17 03:52:31;;;;;;;3.35;3.05;;;21.10;46.70;;;;;;4985193;28;20034;-87
2023/06/17 03:54:57;;;;;;;3.92;3.53;;;21.10;46.70;;;;;;4988964;28;20138;-87
2023/06/17 03:57:25;;;;;;;3.60;3.30;;;21.10;46.70;;;;;;4987561;28;20045;-85
2023/06/17 03:59:51;;;;;;;5.00;2.75;;;21.10;46.70;;;;;;4986606;28;20065;-83
2023/06/17 04:02:18;;;;;;;5.78;3.28;;;21.00;46.60;;;;;;4987875;28;20053;-84
2023/06/17 04:04:46;;;;;;;3.05;2.75;;;21.00;46.60;;;;;;4992899;28;20057;-87
2023/06/17 04:07:12;;;;;;;2.88;2.67;;;21.10;46.80;;;;;;4995997;28;20081;-86
2023/06/17 04:09:39;;;;;;;2.90;2.60;;;21.00;46.60;;;;;;4991610;28;20517;-84
2023/06/17 04:12:07;;;;;;;3.90;2.72;;;21.00;46.60;;;;;;4994402;28;20037;-86
2023/06/17 04:14:34;;;;;;;3.22;2.70;;;21.00;46.70;;;;;;4986276;28;20097;-86
2023/06/17 04:17:01;;;;;;;4.85;3.25;;;21.00;46.70;;;;;;4980858;28;20030;-86
2023/06/17 04:19:28;;;;;;;3.42;3.05;;;21.00;46.70;;;;;;4969519;28;20458;-86
2023/06/17 04:21:54;;;;;;;3.67;3.38;;;21.00;46.70;;;;;;4987597;28;20383;-86
2023/06/17 04:24:20;;;;;;;3.25;2.90;;;21.00;46.70;;;;;;4991335;28;20049;-86
2023/06/17 04:26:46;;;;;;;3.97;3.03;;;21.00;46.80;;;;;;4991414;28;20100;-86
2023/06/17 04:29:14;;;;;;;4.00;3.13;;;21.00;46.90;;;;;;4987201;28;20057;-87
2023/06/17 04:31:40;;;;;;;3.38;3.08;;;20.90;46.70;;;;;;4987189;28;20030;-87
2023/06/17 04:34:12;;;;;;;3.25;2.92;;;20.90;46.70;;;;;;4984039;28;20030;-85
2023/06/17 04:36:39;;;;;;;3.58;2.78;;;20.90;46.80;;;;;;5004948;28;20073;-87
2023/06/17 04:39:05;;;;;;;3.33;2.85;;;20.90;46.80;;;;;;4990360;28;20041;-87
2023/06/17 04:41:32;;;;;;;3.40;3.10;;;20.90;46.90;;;;;;4993314;28;20080;-86
2023/06/17 04:43:58;;;;;;;3.78;3.20;;;20.90;46.90;;;;;;4980530;28;20146;-85
2023/06/17 04:46:28;;;;;;;3.90;3.30;;;20.90;47.00;;;;;;4989682;28;20042;-85
2023/06/17 04:48:54;;;;;;;3.67;3.38;;;20.90;47.10;;;;;;4986346;28;20046;-86
2023/06/17 04:51:24;;;;;;;3.75;3.20;;;20.90;47.10;;;;;;4990566;28;20565;-85
2023/06/17 04:53:50;;;;;;;3.35;3.05;;;20.80;47.00;;;;;;4995778;28;20064;-82
2023/06/17 04:56:19;;;;;;;4.25;3.05;;;20.80;47.10;;;;;;4985720;28;20118;-83
2023/06/17 04:58:46;;;;;;;3.97;3.55;;;20.80;47.20;;;;;;4986972;28;20052;-84
2023/06/17 05:01:14;;;;;;;3.58;3.28;;;20.80;47.30;;;;;;4987539;28;20833;-82
2023/06/17 05:03:40;;;;;;;3.33;3.05;;;20.80;47.40;;;;;;4985141;28;20042;-83
2023/06/17 05:06:07;;;;;;;3.53;3.22;;;20.80;47.50;;;;;;4980608;28;20441;-82
2023/06/17 05:08:34;;;;;;;3.55;3.25;;;20.70;47.40;;;;;;4983273;28;20034;-85
2023/06/17 05:11:00;;;;;;;3.55;3.20;;;20.70;47.50;;;;;;4974223;28;20038;-83
2023/06/17 05:13:27;;;;;;;4.05;3.65;;;20.70;47.70;;;;;;4985301;28;20033;-85
2023/06/17 05:15:55;;;;;;;4.45;3.53;;;20.70;47.90;;;;;;4978321;28;20057;-83
2023/06/17 05:18:21;;;;;;;4.18;3.42;;;20.70;47.80;;;;;;4999292;28;20381;-80
2023/06/17 05:20:48;;;;;;;4.70;4.00;;;20.70;48.00;;;;;;4976751;28;20481;-80
2023/06/17 05:23:17;;;;;;;4.57;3.85;;;20.60;48.00;;;;;;4985152;28;20027;-83
2023/06/17 05:25:44;;;;;;;4.47;4.07;;;20.70;48.30;;;;;;4989864;28;20348;-86
2023/06/17 05:28:10;;;;;;;3.70;3.40;;;20.60;48.30;;;;;;4987244;28;20128;-81
2023/06/17 05:30:46;;;;;;;4.05;3.65;;;20.60;48.40;;;;;;4975544;28;20073;-83
2023/06/17 05:33:18;;;;;;;6.28;4.22;;;20.60;49.00;;;;;;4986508;28;20038;-81
2023/06/17 05:35:49;;;;;;;6.45;4.30;;;20.60;49.40;;;;;;4985633;28;20062;-87
2023/06/17 05:38:17;;;;;;;6.60;4.68;;;20.60;50.20;;;;;;4980640;28;20046;-82
2023/06/17 05:40:44;;;;;;;7.30;4.43;;;20.70;51.20;;;;;;4983364;28;20038;-80
2023/06/17 05:43:10;;;;;;;9.05;4.63;;;20.70;51.60;;;;;;4986654;28;20376;-81
2023/06/17 05:45:36;;;;;;;6.28;4.13;;;20.70;51.90;;;;;;4981191;28;20045;-80
2023/06/17 05:48:04;;;;;;;7.15;4.05;;;20.80;52.50;;;;;;4979649;28;20073;-79
2023/06/17 05:50:30;;;;;;;6.88;4.20;;;20.80;52.90;;;;;;4975541;28;20037;-78
2023/06/17 05:52:58;;;;;;;5.95;4.65;;;20.80;53.30;;;;;;4973328;28;20046;-80
2023/06/17 05:55:25;;;;;;;4.80;4.38;;;20.80;53.60;;;;;;4981594;28;20181;-79
2023/06/17 05:57:52;;;;;;;6.47;4.50;;;20.90;54.10;;;;;;4982264;28;20104;-82
2023/06/17 06:00:22;;;;;;;7.65;5.53;;;20.80;54.80;;;;;;4974172;28;20169;-80
2023/06/17 06:02:52;;;;;;;6.57;5.38;;;20.80;54.80;;;;;;4979051;28;20430;-81
2023/06/17 06:05:18;;;;;;;5.82;5.25;;;20.90;55.50;;;;;;4984713;28;20092;-82
2023/06/17 06:07:44;;;;;;;6.20;5.55;;;20.90;56.10;;;;;;4981449;28;20062;-81
2023/06/17 06:10:11;;;;;;;6.20;5.63;;;21.00;56.70;;;;;;4987779;28;20582;-82
2023/06/17 06:12:41;;;;;;;7.35;5.70;;;21.00;57.10;;;;;;4968007;28;20101;-80
2023/06/17 06:15:08;;;;;;;9.75;6.03;;;21.10;57.50;;;;;;4985101;28;20042;-81
2023/06/17 06:17:34;;;;;;;6.80;5.50;;;21.10;57.70;;;;;;4976818;28;20097;-82
2023/06/17 06:20:00;;;;;;;5.68;4.65;;;21.20;58.10;;;;;;4999841;28;20148;-81
2023/06/17 06:22:26;;;;;;;6.30;5.70;;;21.30;58.30;;;;;;4984977;28;20049;-83
2023/06/17 06:24:52;;;;;;;9.23;6.78;;;21.30;58.50;;;;;;4996458;28;20057;-80
2023/06/17 06:27:19;;;;;;;6.70;5.95;;;21.40;58.70;;;;;;4979947;28;20046;-83
2023/06/17 06:29:45;;;;;;;10.77;6.82;;;21.40;58.60;;;;;;4981279;28;20070;-86
2023/06/17 06:32:13;;;;;;;11.93;5.03;;;21.50;58.90;;;;;;4971007;28;20803;-86
2023/06/17 06:34:42;;;;;;;5.75;5.15;;;21.60;58.90;;;;;;5002835;28;20034;-87
2023/06/17 06:37:08;;;;;;;8.18;5.30;;;21.70;58.80;;;;;;4979868;28;20046;-81
2023/06/17 06:39:36;;;;;;;7.85;5.45;;;21.70;58.50;;;;;;4982489;28;20410;-85
2023/06/17 06:42:02;;;;;;;6.38;5.60;;;21.80;58.50;;;;;;4983626;28;20059;-86
2023/06/17 06:44:51;;;;;;;5.90;5.10;;;21.90;58.40;;;;;;4984481;28;20030;-85
2023/06/17 06:47:20;;;;;;;5.55;5.03;;;21.90;58.00;;;;;;4978609;28;20046;-84
2023/06/17 06:49:47;;;;;;;6.03;5.20;;;22.00;57.90;;;;;;4988882;28;20510;-85
2023/06/17 06:52:15;;;;;;;6.22;4.90;;;22.00;57.70;;;;;;4980899;28;20034;-85
2023/06/17 06:54:45;;;;;;;5.30;4.70;;;22.10;57.50;;;;;;4982625;28;20034;-81
2023/06/17 06:57:11;;;;;;;5.35;4.85;;;22.30;57.60;;;;;;4982504;28;20042;-81
2023/06/17 06:59:41;;;;;;;5.25;4.72;;;22.40;57.50;;;;;;4984000;28;20092;-86
2023/06/17 07:02:07;;;;;;;6.35;4.72;;;22.50;57.30;;;;;;5004298;28;20110;-84
2023/06/17 07:04:33;;;;;;;5.25;4.75;;;22.60;57.10;;;;;;4987576;28;20121;-85
2023/06/17 07:07:02;;;;;;;7.25;4.53;;;22.80;57.10;;;;;;5005641;28;20471;-85
2023/06/17 07:09:33;;;;;;;6.28;4.45;;;22.90;56.90;;;;;;4979641;28;20088;-84
2023/06/17 07:12:06;;;;;;;8.07;5.63;;;23.10;56.80;;;;;;4983683;28;20045;-84
2023/06/17 07:14:38;;;;;;;6.60;5.05;;;23.40;56.80;;;;;;5004381;28;20137;-82
2023/06/17 07:17:06;;;;;;;5.07;4.63;;;23.60;56.60;;;;;;4984182;28;20034;-86
2023/06/17 07:19:32;;;;;;;4.80;4.30;;;23.70;56.50;;;;;;4979757;28;20046;-86
2023/06/17 07:21:59;;;;;;;4.50;4.10;;;23.80;56.30;;;;;;4987537;28;20143;-86
2023/06/17 07:24:26;;;;;;;5.28;4.75;;;24.00;56.40;;;;;;4983933;28;20042;-84
2023/06/17 07:26:52;;;;;;;5.25;3.90;;;24.20;56.30;;;;;;4985444;28;20046;-82
2023/06/17 07:29:19;;;;;;;4.25;3.85;;;24.40;56.30;;;;;;4980829;28;20183;-84
2023/06/17 07:31:45;;;;;;;5.05;4.43;;;24.60;56.30;;;;;;4983131;28;20034;-86
2023/06/17 07:34:11;;;;;;;7.43;4.57;;;24.70;56.10;;;;;;4986722;28;20038;-80
2023/06/17 07:36:40;;;;;;;4.43;3.97;;;24.80;56.00;;;;;;4992507;28;20565;-86
2023/06/17 07:39:07;;;;;;;4.05;3.75;;;24.90;55.90;;;;;;4994614;28;20042;-83
2023/06/17 07:41:36;;;;;;;4.25;3.83;;;25.00;55.90;;;;;;5006677;28;20045;-79
2023/06/17 07:44:03;;;;;;;4.78;4.18;;;25.10;55.70;;;;;;4986030;28;20026;-83
2023/06/17 07:46:31;;;;;;;4.68;4.15;;;25.20;55.40;;;;;;4984011;28;20085;-83
2023/06/17 07:48:57;;;;;;;4.28;3.88;;;25.40;55.20;;;;;;4984832;28;20041;-84
2023/06/17 07:51:23;;;;;;;3.97;3.67;;;25.60;55.00;;;;;;4972004;28;20117;-84
2023/06/17 07:53:49;;;;;;;4.75;4.22;;;25.90;54.70;;;;;;4991802;28;20557;-85
2023/06/17 07:56:17;;;;;;;4.55;3.50;;;26.00;54.30;;;;;;4988497;28;20049;-83
2023/06/17 07:58:49;;;;;;;4.38;4.00;;;26.20;54.10;;;;;;4995781;28;20046;-82
2023/06/17 08:01:15;;;;;;;3.90;3.55;;;26.30;53.70;;;;;;4982628;28;20077;-81
2023/06/17 08:03:44;;;;;;;4.78;3.50;;;26.50;53.60;;;;;;5002374;28;20034;-81
2023/06/17 08:06:13;;;;;;;4.38;3.92;;;26.70;53.50;;;;;;4985597;28;20074;-84
2023/06/17 08:08:45;;;;;;;4.60;4.20;;;26.80;53.20;;;;;;4981155;28;20022;-84
2023/06/17 08:11:12;;;;;;;3.83;3.53;;;26.90;52.90;;;;;;4983856;28;20041;-90
2023/06/17 08:13:39;;;;;;;4.25;3.80;;;27.10;52.70;;;;;;4984865;28;20022;-83
2023/06/17 08:16:05;;;;;;;3.60;3.30;;;27.30;52.50;;;;;;4982152;28;20040;-82
2023/06/17 08:18:31;;;;;;;3.53;3.28;;;27.50;52.20;;;;;;4970948;28;20022;-86
2023/06/17 08:20:57;;;;;;;4.25;3.58;;;27.70;52.00;;;;;;4981278;28;20046;-84
2023/06/17 08:23:23;;;;;;;4.80;3.85;;;27.80;51.70;;;;;;4981750;28;20042;-85
2023/06/17 08:25:49;;;;;;;4.50;4.10;;;27.90;51.50;;;;;;4980832;28;20054;-83
2023/06/17 08:28:15;;;;;;;5.38;4.40;;;28.00;51.30;;;;;;4982758;28;20692;-83
2023/06/17 08:30:44;;;;;;;3.97;3.67;;;28.20;51.20;;;;;;4982335;28;20141;-85
2023/06/17 08:33:10;;;;;;;4.07;3.78;;;28.30;51.00;;;;;;4982515;28;20395;-87
2023/06/17 08:35:36;;;;;;;6.10;4.20;;;28.40;50.80;;;;;;4984065;28;20034;-85
2023/06/17 08:38:05;;;;;;;3.97;3.58;;;28.50;50.60;;;;;;5000718;28;20476;-83
2023/06/17 08:40:32;;;;;;;4.57;4.18;;;28.60;50.40;;;;;;4983542;28;20030;-91
2023/06/17 08:43:02;;;;;;;4.07;3.67;;;28.70;50.30;;;;;;4988196;28;20034;-88
2023/06/17 08:45:31;;;;;;;;;;;28.70;50.10;;;;;;4983767;28;20117;-87
2023/06/17 08:47:57;;;;;;;3.60;3.30;;;28.80;50.10;;;;;;4979451;28;20412;-85
2023/06/17 08:50:26;;;;;;;3.80;3.50;;;28.90;50.00;;;;;;5006663;28;20044;-83
2023/06/17 08:52:52;;;;;;;3.72;3.42;;;29.00;49.70;;;;;;4984143;28;20072;-84
2023/06/17 08:55:19;;;;;;;5.90;3.55;;;29.20;49.50;;;;;;4986600;28;20114;-89
2023/06/17 08:58:06;;;;;;;4.25;3.85;;;29.40;49.30;;;;;;4979282;28;20088;-88
2023/06/17 09:00:32;;;;;;;4.18;3.78;;;29.70;49.00;;;;;;4979765;28;20562;-87
2023/06/17 09:03:03;;;;;;;4.40;4.00;;;29.90;48.60;;;;;;4988857;28;20136;-87
2023/06/17 09:05:29;;;;;;;3.35;3.05;;;30.20;48.30;;;;;;5008212;28;20054;-86
2023/06/17 09:07:55;;;;;;;3.95;3.25;;;30.40;48.00;;;;;;4992207;28;20347;-88
2023/06/17 09:10:24;;;;;;;4.18;3.88;;;30.60;47.70;;;;;;4987213;28;20117;-89
2023/06/17 09:12:51;;;;;;;3.70;3.40;;;30.80;47.40;;;;;;4986214;28;20141;-88
2023/06/17 09:15:17;;;;;;;3.90;3.60;;;31.00;47.20;;;;;;4997734;28;20043;-87
2023/06/17 09:17:53;;;;;;;4.25;3.95;;;31.20;46.90;;;;;;4978790;28;20565;-83
2023/06/17 09:20:25;;;;;;;3.67;3.40;;;31.50;46.70;;;;;;4978233;28;20085;-87
2023/06/17 09:22:51;;;;;;;3.63;3.13;;;31.60;46.30;;;;;;4987263;28;20084;-84
2023/06/17 09:25:18;;;;;;;3.45;3.15;;;31.80;46.10;;;;;;4980655;28;20109;-81
2023/06/17 09:27:48;;;;;;;3.40;3.10;;;31.90;45.90;;;;;;4980282;28;20049;-84
2023/06/17 09:30:23;;;;;;;3.58;3.28;;;32.00;45.70;;;;;;4981803;28;20121;-83
2023/06/17 09:32:52;;;;;;;3.83;3.45;;;32.20;45.50;;;;;;4984230;28;20050;-82
2023/06/17 09:35:18;;;;;;;4.63;3.58;;;32.30;45.30;;;;;;4986750;28;20029;-84
2023/06/17 09:37:53;;;;;;;4.20;3.40;;;32.50;45.10;;;;;;4998916;28;20468;-83
2023/06/17 09:40:20;;;;;;;3.22;2.95;;;32.60;44.90;;;;;;4992357;28;20207;-85
2023/06/17 09:42:47;;;;;;;3.03;2.83;;;32.80;44.70;;;;;;5002957;28;20034;-82
2023/06/17 09:45:24;;;;;;;3.42;3.13;;;33.00;44.50;;;;;;4991188;28;20046;-83
2023/06/17 09:47:53;;;;;;;4.55;4.15;;;33.20;44.20;;;;;;5009424;28;20068;-87
2023/06/17 09:50:20;;;;;;;3.63;3.28;;;33.30;44.00;;;;;;5006300;28;20084;-82
2023/06/17 09:52:52;;;;;;;3.95;3.65;;;33.50;43.80;;;;;;4981791;28;20102;-84
2023/06/17 09:55:19;;;;;;;;;;;33.60;43.60;;;;;;4994184;28;20413;-85
2023/06/17 09:57:47;;;;;;;4.47;4.07;;;33.70;43.60;;;;;;4993043;28;19928;-85
2023/06/17 10:00:18;;;;;;;3.80;3.50;;;33.80;43.50;;;;;;4986100;28;20545;-88
2023/06/17 10:02:50;;;;;;;3.53;3.22;;;33.90;43.70;;;;;;4990894;28;20170;-89
2023/06/17 10:05:17;;;;;;;3.22;3.00;;;34.00;43.20;;;;;;5010912;28;20555;-86
2023/06/17 10:07:45;;;;;;;4.63;3.50;;;34.10;42.90;;;;;;4984662;28;20038;-85
2023/06/17 10:10:17;;;;;;;3.88;3.58;;;34.20;42.80;;;;;;4973348;28;20050;-86
2023/06/17 10:12:45;;;;;;;3.85;3.55;;;34.30;42.60;;;;;;4979073;28;20026;-85
2023/06/17 10:15:18;;;;;;;3.33;3.10;;;34.40;42.40;;;;;;4986477;28;20042;-87
2023/06/17 10:17:46;;;;;;;3.70;3.40;;;34.40;42.30;;;;;;4975065;28;20097;-90
2023/06/17 10:20:22;;;;;;;2.75;2.55;;;34.40;42.30;;;;;;4988536;28;20038;-84
2023/06/17 10:22:54;;;;;;;3.00;2.70;;;34.40;42.20;;;;;;4972044;28;20031;-85
2023/06/17 10:25:24;;;;;;;3.88;3.33;;;34.60;42.10;;;;;;4988437;28;20412;-82
2023/06/17 10:27:53;;;;;;;3.20;3.00;;;34.70;42.00;;;;;;4973918;28;20030;-82
2023/06/17 10:30:28;;;;;;;3.35;3.05;;;34.80;41.80;;;;;;4975894;28;20033;-87
2023/06/17 10:33:02;;;;;;;3.28;2.97;;;35.00;41.70;;;;;;4979712;28;20030;-83
2023/06/17 10:35:41;;;;;;;3.28;2.97;;;35.10;41.40;;;;;;4979406;28;20876;-83
2023/06/17 10:38:30;;;;;;;3.85;3.40;;;35.30;41.20;;;;;;4973324;28;20031;-84
2023/06/17 10:40:57;;;;;;;3.00;2.80;;;35.40;41.10;;;;;;4988177;28;20038;-80
2023/06/17 10:43:22;;;;;;;3.45;3.15;;;35.50;41.10;;;;;;4978083;28;20033;-82
2023/06/17 10:46:00;;;;;;;3.10;2.90;;;35.70;40.90;;;;;;4977586;28;20961;-82
2023/06/17 10:48:32;;;;;;;2.92;2.67;;;35.80;40.70;;;;;;4977406;28;20069;-82
2023/06/17 10:51:09;;;;;;;3.30;3.00;;;35.90;40.50;;;;;;4991113;28;20046;-85
2023/06/17 10:53:36;;;;;;;3.05;2.85;;;36.10;40.40;;;;;;4990488;28;20462;-85
2023/06/17 10:56:04;;;;;;;2.72;2.53;;;36.20;40.80;;;;;;4980306;28;20343;-84
2023/06/17 10:58:47;;;;;;;3.45;3.22;;;36.40;40.00;;;;;;4972650;28;20038;-83
2023/06/17 11:01:13;;;;;;;5.32;4.40;;;36.60;40.40;;;;;;5000327;28;20081;-83
2023/06/17 11:03:40;;;;;;;5.03;4.13;;;36.60;38.90;;;;;;4961336;28;20049;-86
2023/06/17 11:06:09;;;;;;;4.32;3.92;;;36.50;37.90;;;;;;4979404;28;20555;-85
2023/06/17 11:08:38;;;;;;;5.90;4.25;;;36.20;37.10;;;;;;4984049;28;20040;-80
2023/06/17 11:11:15;;;;;;;4.38;3.88;;;35.90;36.50;;;;;;4981093;28;20113;-92
2023/06/17 11:13:50;;;;;;;4.85;4.20;;;35.70;36.50;;;;;;4984811;28;20441;-91
2023/06/17 11:16:17;;;;;;;5.53;4.35;;;35.30;36.40;;;;;;4984658;28;20038;-92
2023/06/17 11:18:44;;;;;;;4.30;3.90;;;35.00;36.60;;;;;;4974144;28;20023;-83
2023/06/17 11:21:11;;;;;;;7.85;4.32;;;34.80;36.40;;;;;;4983895;28;20034;-85
2023/06/17 11:23:40;;;;;;;5.95;4.53;;;34.70;36.20;;;;;;4987273;28;20053;-88
2023/06/17 11:26:07;;;;;;;5.68;4.20;;;34.60;36.10;;;;;;4975976;28;20042;-90
2023/06/17 11:28:39;;;;;;;5.00;4.60;;;34.40;36.20;;;;;;4978686;28;20512;-91
2023/06/17 11:31:07;;;;;;;5.30;4.80;;;34.20;36.30;;;;;;4981167;28;20036;-86
2023/06/17 11:33:33;;;;;;;5.47;4.88;;;34.10;36.30;;;;;;4984291;28;20271;-90
2023/06/17 11:35:59;;;;;;;5.07;4.32;;;34.00;36.20;;;;;;4981390;28;20464;-88
2023/06/17 11:38:26;;;;;;;5.80;4.05;;;33.80;36.10;;;;;;4987871;28;20038;-88
2023/06/17 11:40:59;;;;;;;4.70;4.35;;;33.50;36.50;;;;;;4980042;28;20390;-87
2023/06/17 11:43:28;;;;;;;5.20;4.75;;;33.40;37.00;;;;;;4983636;28;20027;-89
2023/06/17 11:46:01;;;;;;;4.70;4.30;;;33.10;37.00;;;;;;4984699;28;20042;-88
2023/06/17 11:48:29;;;;;;;7.70;5.10;;;33.00;37.30;;;;;;4991283;28;20058;-91
2023/06/17 11:50:58;;;;;;;5.53;4.72;;;32.80;37.50;;;;;;4985137;28;20065;-91
2023/06/17 11:53:34;;;;;;;8.43;4.47;;;32.60;37.80;;;;;;4985528;28;20062;-95
2023/06/17 11:56:05;;;;;;;6.45;5.15;;;32.50;38.10;;;;;;4997356;28;20552;-88
2023/06/17 11:58:32;;;;;;;5.47;4.97;;;32.30;38.10;;;;;;4990709;28;20113;-87
2023/06/17 12:01:01;;;;;;;6.32;5.22;;;32.30;38.20;;;;;;4984129;28;20030;-87
2023/06/17 12:03:28;;;;;;;5.32;4.63;;;32.20;38.20;;;;;;4985127;28;20494;-88
2023/06/17 12:05:55;;;;;;;9.70;4.93;;;32.30;38.10;;;;;;4981269;28;20049;-85
2023/06/17 12:08:35;;;;;;;6.30;5.38;;;32.40;38.00;;;;;;4977906;28;20382;-84
2023/06/17 12:11:25;;;;;;;5.80;4.60;;;32.40;37.90;;;;;;4994639;28;20074;-88
2023/06/17 12:13:52;;;;;;;5.72;5.07;;;32.40;37.80;;;;;;4983112;28;20035;-86
2023/06/17 12:16:27;;;;;;;6.03;5.43;;;32.40;37.80;;;;;;4982481;28;20572;-88
2023/06/17 12:18:53;;;;;;;6.32;5.43;;;32.40;37.70;;;;;;4975550;28;20046;-84
2023/06/17 12:21:20;;;;;;;6.47;5.43;;;32.50;37.80;;;;;;4987586;28;20048;-84
2023/06/17 12:23:51;;;;;;;6.55;5.50;;;32.70;37.80;;;;;;4983089;28;20098;-82
2023/06/17 12:26:17;;;;;;;6.35;5.47;;;32.80;37.70;;;;;;4979469;28;20105;-81
2023/06/17 12:28:45;;;;;;;6.75;5.90;;;33.00;37.60;;;;;;4984259;28;20371;-81
2023/06/17 12:31:12;;;;;;;5.13;4.72;;;33.10;37.40;;;;;;4988662;28;20032;-81
2023/06/17 12:33:41;;;;;;;6.80;4.40;;;33.20;37.40;;;;;;4980841;28;20171;-80
2023/06/17 12:36:07;;;;;;;6.30;5.70;;;33.30;37.50;;;;;;4979988;28;20058;-79
2023/06/17 12:38:34;;;;;;;11.02;5.45;;;33.30;37.60;;;;;;4979925;28;20038;-92
2023/06/17 12:41:06;;;;;;;6.13;5.55;;;33.20;37.70;;;;;;4997402;28;20026;-86
2023/06/17 12:43:36;;;;;;;5.50;5.00;;;33.10;38.00;;;;;;4982268;28;20030;-85
2023/06/17 12:46:06;;;;;;;6.88;5.28;;;33.10;37.90;;;;;;4985793;28;20026;-85
2023/06/17 12:48:35;;;;;;;8.73;5.80;;;33.20;37.80;;;;;;4991840;28;20077;-83
2023/06/17 12:51:04;;;;;;;8.48;5.50;;;33.40;37.70;;;;;;4982097;28;20474;-87
2023/06/17 12:53:30;;;;;;;6.25;5.65;;;33.50;38.10;;;;;;4987930;28;20154;-84
2023/06/17 12:55:58;;;;;;;6.35;5.85;;;33.50;37.30;;;;;;4976846;28;20054;-86